createdAt,value
2022-10-13T00:03:57.530Z,112
2022-10-13T00:08:57.900Z,112
2022-10-13T00:13:57.628Z,112
2022-10-13T00:18:58.026Z,112
2022-10-13T00:23:57.556Z,112
2022-10-13T00:28:58.186Z,112
2022-10-13T00:33:57.923Z,112
2022-10-13T00:38:57.778Z,112
2022-10-13T00:43:58.249Z,112
2022-10-13T00:48:57.760Z,112
2022-10-13T00:54:01.367Z,112
2022-10-13T00:58:57.734Z,112
2022-10-13T01:03:57.863Z,112
2022-10-13T01:08:58.439Z,112
2022-10-13T01:13:58.346Z,112
2022-10-13T01:18:58.318Z,112
2022-10-13T01:23:58.233Z,112
2022-10-13T01:28:57.825Z,112
2022-10-13T01:33:58.787Z,112
2022-10-13T01:38:58.168Z,112
2022-10-13T01:43:57.882Z,112
2022-10-13T01:48:58.110Z,112
2022-10-13T01:53:58.458Z,112
2022-10-13T01:58:58.254Z,112
2022-10-13T02:03:58.178Z,112
2022-10-13T02:08:57.783Z,112
2022-10-13T02:13:58.137Z,112
2022-10-13T02:18:58.493Z,112
2022-10-13T02:23:58.228Z,112
2022-10-13T02:28:57.575Z,112
2022-10-13T02:33:58.171Z,112
2022-10-13T02:38:58.759Z,112
2022-10-13T02:43:57.867Z,112
2022-10-13T02:48:58.574Z,112
2022-10-13T02:53:58.276Z,112
2022-10-13T02:58:57.955Z,112
2022-10-13T03:03:58.007Z,112
2022-10-13T03:08:57.861Z,112
2022-10-13T03:13:58.575Z,112
2022-10-13T03:18:58.230Z,112
2022-10-13T03:23:58.634Z,112
2022-10-13T03:28:58.506Z,112
2022-10-13T03:33:58.314Z,112
2022-10-13T03:38:57.743Z,112
2022-10-13T03:43:58.397Z,112
2022-10-13T03:48:58.278Z,112
2022-10-13T03:53:58.504Z,112
2022-10-13T03:58:58.510Z,112
2022-10-13T04:03:58.293Z,112
2022-10-13T04:08:57.815Z,112
2022-10-13T04:13:57.796Z,112
2022-10-13T04:18:58.288Z,112
2022-10-13T04:23:58.551Z,112
2022-10-13T04:28:58.226Z,112
2022-10-13T04:33:57.840Z,112
2022-10-13T04:38:58.664Z,112
2022-10-13T04:43:58.056Z,112
2022-10-13T04:48:57.959Z,112
2022-10-13T04:53:58.566Z,112
2022-10-13T07:08:58.079Z,112
2022-10-13T07:13:58.523Z,112
2022-10-13T07:18:58.359Z,112
2022-10-13T07:23:57.937Z,112
2022-10-13T07:28:58.812Z,112
2022-10-13T07:33:58.284Z,112
2022-10-13T07:38:58.732Z,112
2022-10-13T07:43:58.492Z,112
2022-10-13T07:48:57.798Z,112
2022-10-13T07:53:58.630Z,112
2022-10-13T07:58:58.002Z,112
2022-10-13T08:03:58.446Z,112
2022-10-13T08:08:58.947Z,135
2022-10-13T08:13:58.452Z,135
2022-10-13T08:18:58.145Z,135
2022-10-13T08:23:57.989Z,135
2022-10-13T08:29:23.137Z,135
2022-10-13T08:33:58.279Z,135
2022-10-13T08:38:58.188Z,135
2022-10-13T08:45:22.141Z,135
2022-10-13T08:48:58.816Z,135
2022-10-13T08:53:58.700Z,135
2022-10-13T08:58:58.168Z,135
2022-10-13T09:03:58.068Z,135
2022-10-13T09:08:58.755Z,135
2022-10-13T09:13:58.501Z,135
2022-10-13T09:18:58.302Z,270
2022-10-13T09:23:57.926Z,270
2022-10-13T09:28:58.683Z,158
2022-10-13T09:33:58.582Z,158
2022-10-13T09:38:57.995Z,180
2022-10-13T09:43:58.428Z,180
2022-10-13T09:48:58.067Z,225
2022-10-13T09:53:58.633Z,225
2022-10-13T09:58:58.166Z,202
2022-10-13T10:03:58.754Z,202
2022-10-13T10:09:05.206Z,202
2022-10-13T10:13:59.210Z,202
2022-10-13T10:18:59.217Z,112
2022-10-13T10:23:58.062Z,112
2022-10-13T10:28:58.664Z,158
2022-10-13T10:33:58.215Z,158
2022-10-13T10:38:58.381Z,158
2022-10-13T10:43:57.937Z,158
2022-10-13T10:48:58.882Z,158
2022-10-13T10:53:58.532Z,158
2022-10-13T10:58:57.971Z,135
2022-10-13T11:03:58.371Z,135
2022-10-13T11:08:58.807Z,180
2022-10-13T11:13:57.992Z,180
2022-10-13T11:18:58.517Z,180
2022-10-13T11:24:02.424Z,180
2022-10-13T11:28:58.894Z,135
2022-10-13T11:33:58.347Z,135
2022-10-13T11:38:58.613Z,202
2022-10-13T11:43:57.968Z,202
2022-10-13T11:48:58.444Z,158
2022-10-13T11:53:58.787Z,158
2022-10-13T11:58:58.308Z,135
2022-10-13T12:03:58.528Z,135
2022-10-13T12:08:58.231Z,225
2022-10-13T12:13:58.537Z,225
2022-10-13T12:18:58.046Z,202
2022-10-13T12:23:58.802Z,202
2022-10-13T12:28:58.615Z,225
2022-10-13T12:33:58.009Z,225
2022-10-13T12:38:59.061Z,158
2022-10-13T12:44:06.605Z,158
2022-10-13T12:48:58.385Z,270
2022-10-13T12:53:58.881Z,270
2022-10-13T12:58:58.222Z,225
2022-10-13T13:03:58.667Z,225
2022-10-13T13:08:58.512Z,202
2022-10-13T13:13:58.736Z,202
2022-10-13T13:18:58.833Z,225
2022-10-13T13:24:04.214Z,225
2022-10-13T13:28:58.725Z,225
2022-10-13T13:33:58.264Z,225
2022-10-13T13:38:58.996Z,248
2022-10-13T13:43:58.482Z,248
2022-10-13T13:48:58.759Z,248
2022-10-13T13:53:58.302Z,248
2022-10-13T13:58:58.781Z,248
2022-10-13T14:03:58.444Z,248
2022-10-13T14:08:58.635Z,248
2022-10-13T14:13:58.332Z,248
2022-10-13T14:18:58.719Z,248
2022-10-13T14:23:58.212Z,248
2022-10-13T14:28:58.654Z,225
2022-10-13T14:33:58.279Z,225
2022-10-13T14:38:58.132Z,225
2022-10-13T14:43:58.632Z,225
2022-10-13T14:48:58.377Z,270
2022-10-13T14:53:58.159Z,270
2022-10-13T14:58:58.436Z,270
2022-10-13T15:03:58.177Z,270
2022-10-13T15:08:59.017Z,248
2022-10-13T15:13:58.473Z,248
2022-10-13T15:18:58.970Z,248
2022-10-13T15:23:58.222Z,248
2022-10-13T15:28:59.255Z,248
2022-10-13T15:33:58.105Z,248
2022-10-13T15:38:59.084Z,248
2022-10-13T15:43:59.132Z,248
2022-10-13T15:48:58.517Z,225
2022-10-13T15:53:59.055Z,225
2022-10-13T15:58:58.652Z,180
2022-10-13T16:03:58.886Z,180
2022-10-13T16:08:58.649Z,248
2022-10-13T16:13:58.291Z,248
2022-10-13T16:18:58.727Z,225
2022-10-13T16:23:58.262Z,225
2022-10-13T16:28:58.914Z,135
2022-10-13T16:33:58.618Z,135
2022-10-13T16:38:58.142Z,202
2022-10-13T16:43:59.005Z,202
2022-10-13T16:48:58.736Z,225
2022-10-13T16:54:04.652Z,225
2022-10-13T16:58:59.114Z,180
2022-10-13T17:03:58.696Z,180
2022-10-13T17:08:59.270Z,225
2022-10-13T17:13:58.760Z,225
2022-10-13T17:18:58.391Z,225
2022-10-13T17:23:58.668Z,225
2022-10-13T17:28:58.257Z,225
2022-10-13T17:33:58.780Z,225
2022-10-13T17:38:58.418Z,248
2022-10-13T17:43:59.066Z,248
2022-10-13T17:48:58.648Z,270
2022-10-13T17:53:59.086Z,270
2022-10-13T17:58:58.767Z,202
2022-10-13T18:03:59.402Z,202
2022-10-13T18:08:58.147Z,225
2022-10-13T18:13:58.581Z,225
2022-10-13T18:18:59.202Z,248
2022-10-13T18:23:58.704Z,248
2022-10-13T18:28:59.299Z,248
2022-10-13T18:33:59.373Z,248
2022-10-13T18:38:58.770Z,248
2022-10-13T18:43:58.154Z,248
2022-10-13T18:48:58.661Z,248
2022-10-13T18:53:59.022Z,248
2022-10-13T18:59:00.311Z,248
2022-10-13T19:03:58.884Z,248
2022-10-13T19:08:58.687Z,248
2022-10-13T19:13:59.077Z,248
2022-10-13T19:18:58.400Z,248
2022-10-13T19:23:58.904Z,248
2022-10-13T19:28:58.406Z,248
2022-10-13T19:33:58.839Z,248
2022-10-13T19:38:58.934Z,248
2022-10-13T19:43:58.688Z,248
2022-10-13T19:48:59.142Z,248
2022-10-13T19:53:58.652Z,248
2022-10-13T19:58:59.041Z,248
2022-10-13T20:03:58.633Z,248
2022-10-13T20:08:59.048Z,248
2022-10-13T20:13:58.741Z,248
2022-10-13T20:18:59.207Z,248
2022-10-13T20:23:58.678Z,248
2022-10-13T20:28:59.038Z,248
2022-10-13T20:33:58.460Z,248
2022-10-13T20:38:58.529Z,248
2022-10-13T20:43:58.472Z,248
2022-10-13T20:49:13.274Z,202
2022-10-13T20:53:58.965Z,202
2022-10-13T20:58:58.955Z,202
2022-10-13T21:03:58.629Z,202
2022-10-13T21:08:58.609Z,225
2022-10-13T21:13:59.255Z,225
2022-10-13T21:18:58.672Z,225
2022-10-13T21:23:58.378Z,225
2022-10-13T21:28:59.182Z,225
2022-10-13T21:33:58.835Z,225
2022-10-13T21:38:59.252Z,225
2022-10-13T21:43:59.226Z,225
2022-10-13T21:48:59.084Z,248
2022-10-13T21:53:58.719Z,248
2022-10-13T21:58:59.068Z,225
2022-10-13T22:03:59.033Z,225
2022-10-13T22:08:58.605Z,248
2022-10-13T22:13:58.953Z,248
2022-10-13T22:18:58.718Z,225
2022-10-13T22:23:59.306Z,225
2022-10-13T22:28:59.166Z,202
2022-10-13T22:33:58.737Z,202
2022-10-13T22:38:59.112Z,225
2022-10-13T22:43:58.600Z,225
2022-10-13T22:48:58.955Z,225
2022-10-13T22:53:58.657Z,225
2022-10-13T22:58:59.099Z,202
2022-10-13T23:03:59.182Z,202
2022-10-13T23:08:58.828Z,248
2022-10-13T23:14:00.082Z,248
2022-10-13T23:18:58.470Z,202
2022-10-13T23:23:59.010Z,202
2022-10-13T23:28:59.584Z,225
2022-10-13T23:33:59.169Z,225
2022-10-13T23:38:59.096Z,202
2022-10-13T23:43:58.784Z,202
2022-10-13T23:48:59.429Z,248
2022-10-13T23:53:58.371Z,248
2022-10-13T23:58:58.967Z,225
